sensor_id;sensor_type;location;lat;lon;timestamp;pressure;altitude;pressure_sealevel;temperature
77414;BMP280;66486;49.992;19.164;2023-09-07T20:18:14;99707.41;;;15.62
77414;BMP280;66486;49.992;19.164;2023-09-07T20:20:41;99706.03;;;15.70
77414;BMP280;66486;49.992;19.164;2023-09-07T20:23:07;99704.69;;;15.62
77414;BMP280;66486;49.992;19.164;2023-09-07T20:25:36;99707.72;;;15.64
77414;BMP280;66486;49.992;19.164;2023-09-07T20:28:02;99700.25;;;15.68
77414;BMP280;66486;49.992;19.164;2023-09-07T20:30:29;99703.84;;;15.65
77414;BMP280;66486;49.992;19.164;2023-09-07T20:32:55;99698.00;;;15.67
77414;BMP280;66486;49.992;19.164;2023-09-07T20:35:22;99696.06;;;15.80
77414;BMP280;66486;49.992;19.164;2023-09-07T20:37:59;99689.69;;;15.86
77414;BMP280;66486;49.992;19.164;2023-09-07T20:40:27;99687.84;;;15.83
77414;BMP280;66486;49.992;19.164;2023-09-07T20:42:53;99696.97;;;15.89
77414;BMP280;66486;49.992;19.164;2023-09-07T20:45:25;99692.97;;;15.81
77414;BMP280;66486;49.992;19.164;2023-09-07T20:47:52;99688.31;;;15.82
77414;BMP280;66486;49.992;19.164;2023-09-07T20:50:19;99693.81;;;15.78
77414;BMP280;66486;49.992;19.164;2023-09-07T20:52:46;99689.38;;;15.84
77414;BMP280;66486;49.992;19.164;2023-09-07T20:55:13;99693.06;;;15.78
77414;BMP280;66486;49.992;19.164;2023-09-07T20:57:40;99682.09;;;15.81
77414;BMP280;66486;49.992;19.164;2023-09-07T21:00:07;99681.44;;;15.77
77414;BMP280;66486;49.992;19.164;2023-09-07T21:02:39;99685.69;;;15.78
77414;BMP280;66486;49.992;19.164;2023-09-07T21:05:06;99685.69;;;15.78
77414;BMP280;66486;49.992;19.164;2023-09-07T21:07:33;99679.50;;;15.78
77414;BMP280;66486;49.992;19.164;2023-09-07T21:09:59;99682.97;;;15.78
77414;BMP280;66486;49.992;19.164;2023-09-07T21:12:25;99692.28;;;15.77
77414;BMP280;66486;49.992;19.164;2023-09-07T21:14:52;99691.28;;;15.71
77414;BMP280;66486;49.992;19.164;2023-09-07T21:17:18;99692.81;;;15.72
77414;BMP280;66486;49.992;19.164;2023-09-07T21:19:44;99690.88;;;15.73
77414;BMP280;66486;49.992;19.164;2023-09-07T21:22:10;99698.66;;;15.71
77414;BMP280;66486;49.992;19.164;2023-09-07T21:24:36;99701.78;;;15.69
77414;BMP280;66486;49.992;19.164;2023-09-07T21:27:02;99697.53;;;15.68
77414;BMP280;66486;49.992;19.164;2023-09-07T21:29:28;99703.44;;;15.79
77414;BMP280;66486;49.992;19.164;2023-09-07T21:31:54;99700.78;;;15.63
77414;BMP280;66486;49.992;19.164;2023-09-07T21:34:20;99694.34;;;15.57
77414;BMP280;66486;49.992;19.164;2023-09-07T21:37:01;99692.50;;;15.54
77414;BMP280;66486;49.992;19.164;2023-09-07T21:39:27;99694.88;;;15.52
77414;BMP280;66486;49.992;19.164;2023-09-07T21:41:54;99695.97;;;15.55
77414;BMP280;66486;49.992;19.164;2023-09-07T21:44:21;99697.16;;;15.53
77414;BMP280;66486;49.992;19.164;2023-09-07T21:46:48;99687.75;;;15.42
77414;BMP280;66486;49.992;19.164;2023-09-07T21:49:15;99690.91;;;15.40
77414;BMP280;66486;49.992;19.164;2023-09-07T21:51:44;99688.28;;;15.37
77414;BMP280;66486;49.992;19.164;2023-09-07T21:54:10;99697.97;;;15.22
77414;BMP280;66486;49.992;19.164;2023-09-07T21:56:38;99691.69;;;15.09
77414;BMP280;66486;49.992;19.164;2023-09-07T21:59:05;99688.47;;;15.14
77414;BMP280;66486;49.992;19.164;2023-09-07T22:01:33;99693.56;;;15.12
77414;BMP280;66486;49.992;19.164;2023-09-07T22:03:59;99690.09;;;15.11
77414;BMP280;66486;49.992;19.164;2023-09-07T22:06:25;99683.22;;;15.07
77414;BMP280;66486;49.992;19.164;2023-09-07T22:08:51;99684.06;;;15.04
77414;BMP280;66486;49.992;19.164;2023-09-07T22:11:18;99679.81;;;15.03
77414;BMP280;66486;49.992;19.164;2023-09-07T22:13:44;99678.97;;;15.06
77414;BMP280;66486;49.992;19.164;2023-09-07T22:16:10;99681.75;;;15.02
77414;BMP280;66486;49.992;19.164;2023-09-07T22:18:36;99681.25;;;14.91
77414;BMP280;66486;49.992;19.164;2023-09-07T22:21:03;99675.91;;;14.88
77414;BMP280;66486;49.992;19.164;2023-09-07T22:23:29;99675.81;;;14.91
77414;BMP280;66486;49.992;19.164;2023-09-07T22:25:56;99681.19;;;14.95
77414;BMP280;66486;49.992;19.164;2023-09-07T22:28:22;99694.03;;;14.91
77414;BMP280;66486;49.992;19.164;2023-09-07T22:30:48;99679.72;;;14.90
77414;BMP280;66486;49.992;19.164;2023-09-07T22:33:15;99679.66;;;14.94
77414;BMP280;66486;49.992;19.164;2023-09-07T22:35:41;99682.25;;;14.81
77414;BMP280;66486;49.992;19.164;2023-09-07T22:38:07;99674.13;;;14.81
77414;BMP280;66486;49.992;19.164;2023-09-07T22:40:34;99679.41;;;14.88
77414;BMP280;66486;49.992;19.164;2023-09-07T22:43:02;99675.06;;;14.91
77414;BMP280;66486;49.992;19.164;2023-09-07T22:45:34;99689.75;;;14.93
77414;BMP280;66486;49.992;19.164;2023-09-07T22:48:00;99678.47;;;14.95
77414;BMP280;66486;49.992;19.164;2023-09-07T22:50:27;99681.09;;;14.98
77414;BMP280;66486;49.992;19.164;2023-09-07T22:52:53;99678.53;;;14.75
77414;BMP280;66486;49.992;19.164;2023-09-07T22:55:39;99682.75;;;14.60
77414;BMP280;66486;49.992;19.164;2023-09-07T22:58:07;99688.22;;;14.56
77414;BMP280;66486;49.992;19.164;2023-09-07T23:00:34;99675.03;;;14.58
77414;BMP280;66486;49.992;19.164;2023-09-07T23:03:00;99685.84;;;14.58
77414;BMP280;66486;49.992;19.164;2023-09-07T23:05:26;99680.44;;;14.58
77414;BMP280;66486;49.992;19.164;2023-09-07T23:07:52;99680.50;;;14.55
77414;BMP280;66486;49.992;19.164;2023-09-07T23:10:18;99686.66;;;14.39
77414;BMP280;66486;49.992;19.164;2023-09-07T23:12:47;99689.78;;;14.38
77414;BMP280;66486;49.992;19.164;2023-09-07T23:15:13;99686.38;;;14.34
77414;BMP280;66486;49.992;19.164;2023-09-07T23:17:39;99687.25;;;14.31
77414;BMP280;66486;49.992;19.164;2023-09-07T23:20:05;99680.28;;;14.30
77414;BMP280;66486;49.992;19.164;2023-09-07T23:22:39;99682.75;;;14.40
77414;BMP280;66486;49.992;19.164;2023-09-07T23:25:05;99678.03;;;14.44
77414;BMP280;66486;49.992;19.164;2023-09-07T23:27:32;99685.72;;;14.65
77414;BMP280;66486;49.992;19.164;2023-09-07T23:29:59;99688.75;;;14.67
77414;BMP280;66486;49.992;19.164;2023-09-07T23:32:30;99682.75;;;14.60
77414;BMP280;66486;49.992;19.164;2023-09-07T23:35:04;99688.94;;;14.60
77414;BMP280;66486;49.992;19.164;2023-09-07T23:37:31;99684.69;;;14.59
77414;BMP280;66486;49.992;19.164;2023-09-07T23:39:58;99681.34;;;14.52
77414;BMP280;66486;49.992;19.164;2023-09-07T23:42:25;99686.38;;;14.53
77414;BMP280;66486;49.992;19.164;2023-09-07T23:44:53;99684.63;;;14.43
77414;BMP280;66486;49.992;19.164;2023-09-07T23:47:20;99683.91;;;14.43
77414;BMP280;66486;49.992;19.164;2023-09-07T23:49:46;99690.53;;;14.38
77414;BMP280;66486;49.992;19.164;2023-09-07T23:52:12;99682.13;;;14.33
77414;BMP280;66486;49.992;19.164;2023-09-07T23:54:40;99683.28;;;14.35
77414;BMP280;66486;49.992;19.164;2023-09-07T23:57:06;99685.84;;;14.42
77414;BMP280;66486;49.992;19.164;2023-09-07T23:59:32;99686.16;;;14.44
